sensor_id;sensor_type;location;lat;lon;timestamp;pressure;altitude;pressure_sealevel;temperature;humidity
19676;BME280;39539;52.202;9.876;2023-07-13T00:02:17;100698.41;;;17.72;100.00
19676;BME280;39539;52.202;9.876;2023-07-13T00:04:42;100707.09;;;17.79;100.00
19676;BME280;39539;52.202;9.876;2023-07-13T00:07:08;100712.16;;;17.76;100.00
19676;BME280;39539;52.202;9.876;2023-07-13T00:09:34;100712.38;;;17.74;100.00
19676;BME280;39539;52.202;9.876;2023-07-13T00:11:59;100714.72;;;17.65;100.00
19676;BME280;39539;52.202;9.876;2023-07-13T00:14:27;100719.91;;;17.72;100.00
19676;BME280;39539;52.202;9.876;2023-07-13T00:16:52;100715.03;;;17.69;100.00
19676;BME280;39539;52.202;9.876;2023-07-13T00:19:18;100713.09;;;17.64;100.00
19676;BME280;39539;52.202;9.876;2023-07-13T00:21:43;100716.59;;;17.65;100.00
19676;BME280;39539;52.202;9.876;2023-07-13T00:24:16;100728.72;;;17.67;100.00
19676;BME280;39539;52.202;9.876;2023-07-13T00:26:47;100714.94;;;17.59;100.00
19676;BME280;39539;52.202;9.876;2023-07-13T00:29:12;100694.94;;;17.49;100.00
19676;BME280;39539;52.202;9.876;2023-07-13T00:31:38;100713.03;;;17.59;100.00
19676;BME280;39539;52.202;9.876;2023-07-13T00:34:04;100723.88;;;17.64;100.00
19676;BME280;39539;52.202;9.876;2023-07-13T00:36:30;100720.81;;;17.56;100.00
19676;BME280;39539;52.202;9.876;2023-07-13T00:38:56;100711.59;;;17.51;100.00
19676;BME280;39539;52.202;9.876;2023-07-13T00:41:21;100713.94;;;17.43;100.00
19676;BME280;39539;52.202;9.876;2023-07-13T00:43:46;100715.25;;;17.40;100.00
19676;BME280;39539;52.202;9.876;2023-07-13T00:46:22;100713.06;;;17.37;100.00
19676;BME280;39539;52.202;9.876;2023-07-13T00:48:49;100711.44;;;17.36;100.00
19676;BME280;39539;52.202;9.876;2023-07-13T00:51:21;100718.63;;;17.31;100.00
19676;BME280;39539;52.202;9.876;2023-07-13T00:53:49;100714.06;;;17.31;100.00
19676;BME280;39539;52.202;9.876;2023-07-13T00:56:16;100703.25;;;17.26;100.00
19676;BME280;39539;52.202;9.876;2023-07-13T00:58:41;100698.16;;;17.24;100.00
19676;BME280;39539;52.202;9.876;2023-07-13T01:01:07;100698.06;;;17.19;100.00
19676;BME280;39539;52.202;9.876;2023-07-13T01:03:34;100694.75;;;17.12;100.00
19676;BME280;39539;52.202;9.876;2023-07-13T01:06:00;100698.22;;;17.08;100.00
19676;BME280;39539;52.202;9.876;2023-07-13T01:08:26;100685.78;;;17.01;100.00
19676;BME280;39539;52.202;9.876;2023-07-13T01:10:56;100685.72;;;16.96;100.00
19676;BME280;39539;52.202;9.876;2023-07-13T01:13:23;100681.34;;;16.90;100.00
19676;BME280;39539;52.202;9.876;2023-07-13T01:15:50;100672.56;;;16.78;100.00
19676;BME280;39539;52.202;9.876;2023-07-13T01:18:20;100687.34;;;16.80;100.00
19676;BME280;39539;52.202;9.876;2023-07-13T01:20:53;100681.56;;;16.72;100.00
19676;BME280;39539;52.202;9.876;2023-07-13T01:23:19;100680.38;;;16.63;100.00
19676;BME280;39539;52.202;9.876;2023-07-13T01:25:45;100688.34;;;16.57;100.00
19676;BME280;39539;52.202;9.876;2023-07-13T01:28:11;100687.16;;;16.48;100.00
19676;BME280;39539;52.202;9.876;2023-07-13T01:30:38;100690.72;;;16.37;100.00
19676;BME280;39539;52.202;9.876;2023-07-13T01:33:08;100666.34;;;16.22;100.00
19676;BME280;39539;52.202;9.876;2023-07-13T01:35:35;100680.22;;;16.19;100.00
19676;BME280;39539;52.202;9.876;2023-07-13T01:38:01;100683.31;;;16.10;100.00
19676;BME280;39539;52.202;9.876;2023-07-13T01:40:27;100689.81;;;15.98;100.00
19676;BME280;39539;52.202;9.876;2023-07-13T01:42:52;100675.81;;;15.79;100.00
19676;BME280;39539;52.202;9.876;2023-07-13T01:45:18;100691.41;;;15.82;100.00
19676;BME280;39539;52.202;9.876;2023-07-13T01:47:43;100680.63;;;15.65;100.00
19676;BME280;39539;52.202;9.876;2023-07-13T01:50:09;100697.91;;;15.69;100.00
19676;BME280;39539;52.202;9.876;2023-07-13T01:52:35;100696.97;;;15.63;100.00
19676;BME280;39539;52.202;9.876;2023-07-13T01:55:00;100702.69;;;15.55;100.00
19676;BME280;39539;52.202;9.876;2023-07-13T01:57:25;100676.31;;;15.35;100.00
19676;BME280;39539;52.202;9.876;2023-07-13T01:59:51;100676.47;;;15.29;100.00
19676;BME280;39539;52.202;9.876;2023-07-13T02:02:16;100703.25;;;15.29;100.00
19676;BME280;39539;52.202;9.876;2023-07-13T02:04:41;100678.81;;;15.13;100.00
19676;BME280;39539;52.202;9.876;2023-07-13T02:07:08;100699.56;;;15.18;100.00
19676;BME280;39539;52.202;9.876;2023-07-13T02:09:34;100688.75;;;15.01;100.00
19676;BME280;39539;52.202;9.876;2023-07-13T02:12:00;100708.16;;;15.08;100.00
19676;BME280;39539;52.202;9.876;2023-07-13T02:14:25;100692.47;;;15.00;100.00
19676;BME280;39539;52.202;9.876;2023-07-13T02:16:50;100701.09;;;15.02;100.00
19676;BME280;39539;52.202;9.876;2023-07-13T02:19:16;100708.53;;;15.12;100.00
19676;BME280;39539;52.202;9.876;2023-07-13T02:21:41;100705.13;;;15.16;100.00
19676;BME280;39539;52.202;9.876;2023-07-13T02:24:07;100700.59;;;15.17;100.00
19676;BME280;39539;52.202;9.876;2023-07-13T02:26:32;100710.47;;;15.16;100.00
19676;BME280;39539;52.202;9.876;2023-07-13T02:28:57;100684.06;;;15.08;100.00
19676;BME280;39539;52.202;9.876;2023-07-13T02:31:23;100685.81;;;15.14;100.00
19676;BME280;39539;52.202;9.876;2023-07-13T02:33:48;100712.22;;;15.22;100.00
19676;BME280;39539;52.202;9.876;2023-07-13T02:36:13;100707.44;;;15.24;100.00
19676;BME280;39539;52.202;9.876;2023-07-13T02:38:41;100715.00;;;15.27;100.00
19676;BME280;39539;52.202;9.876;2023-07-13T02:41:08;100717.19;;;15.31;100.00
19676;BME280;39539;52.202;9.876;2023-07-13T02:43:35;100709.50;;;15.34;100.00
19676;BME280;39539;52.202;9.876;2023-07-13T02:46:01;100703.13;;;15.35;100.00
19676;BME280;39539;52.202;9.876;2023-07-13T02:48:32;100716.03;;;15.38;100.00
19676;BME280;39539;52.202;9.876;2023-07-13T02:50:58;100696.25;;;15.27;100.00
19676;BME280;39539;52.202;9.876;2023-07-13T02:53:23;100714.63;;;15.36;100.00
19676;BME280;39539;52.202;9.876;2023-07-13T02:55:48;100720.94;;;15.30;100.00
19676;BME280;39539;52.202;9.876;2023-07-13T02:58:14;100724.22;;;15.20;100.00
19676;BME280;39539;52.202;9.876;2023-07-13T03:00:46;100730.66;;;15.07;100.00
19676;BME280;39539;52.202;9.876;2023-07-13T03:03:12;100718.44;;;14.99;100.00
19676;BME280;39539;52.202;9.876;2023-07-13T03:05:41;100733.91;;;14.86;100.00
19676;BME280;39539;52.202;9.876;2023-07-13T03:08:07;100734.25;;;14.77;100.00
19676;BME280;39539;52.202;9.876;2023-07-13T03:10:33;100728.81;;;14.72;100.00
19676;BME280;39539;52.202;9.876;2023-07-13T03:12:58;100730.56;;;14.67;100.00
19676;BME280;39539;52.202;9.876;2023-07-13T03:15:24;100725.53;;;14.58;100.00
19676;BME280;39539;52.202;9.876;2023-07-13T03:17:49;100713.28;;;14.51;100.00
19676;BME280;39539;52.202;9.876;2023-07-13T03:20:15;100726.66;;;14.51;100.00
19676;BME280;39539;52.202;9.876;2023-07-13T03:22:40;100721.19;;;14.46;100.00
19676;BME280;39539;52.202;9.876;2023-07-13T03:25:07;100726.53;;;14.46;100.00
19676;BME280;39539;52.202;9.876;2023-07-13T03:27:32;100734.25;;;14.54;100.00
19676;BME280;39539;52.202;9.876;2023-07-13T03:29:58;100729.16;;;14.52;100.00
19676;BME280;39539;52.202;9.876;2023-07-13T03:32:23;100717.63;;;14.52;100.00
19676;BME280;39539;52.202;9.876;2023-07-13T03:34:48;100719.38;;;14.58;100.00
19676;BME280;39539;52.202;9.876;2023-07-13T03:37:14;100722.63;;;14.60;100.00
19676;BME280;39539;52.202;9.876;2023-07-13T03:39:39;100741.00;;;14.68;100.00
19676;BME280;39539;52.202;9.876;2023-07-13T03:42:05;100748.09;;;14.74;100.00
19676;BME280;39539;52.202;9.876;2023-07-13T03:44:30;100731.84;;;14.76;100.00
19676;BME280;39539;52.202;9.876;2023-07-13T03:46:56;100745.22;;;14.88;100.00
19676;BME280;39539;52.202;9.876;2023-07-13T03:49:21;100729.16;;;14.88;100.00
19676;BME280;39539;52.202;9.876;2023-07-13T03:51:47;100747.88;;;14.99;100.00
19676;BME280;39539;52.202;9.876;2023-07-13T03:54:12;100741.94;;;15.09;100.00
19676;BME280;39539;52.202;9.876;2023-07-13T03:56:37;100718.41;;;15.11;100.00
19676;BME280;39539;52.202;9.876;2023-07-13T03:59:03;100742.91;;;15.43;100.00
19676;BME280;39539;52.202;9.876;2023-07-13T04:01:29;100728.47;;;15.44;100.00
19676;BME280;39539;52.202;9.876;2023-07-13T04:03:54;100736.81;;;15.60;100.00
19676;BME280;39539;52.202;9.876;2023-07-13T04:06:27;100717.31;;;15.64;100.00
19676;BME280;39539;52.202;9.876;2023-07-13T04:08:55;100739.97;;;15.97;100.00
19676;BME280;39539;52.202;9.876;2023-07-13T04:11:23;100732.25;;;16.17;100.00
19676;BME280;39539;52.202;9.876;2023-07-13T04:13:49;100726.50;;;16.26;100.00
19676;BME280;39539;52.202;9.876;2023-07-13T04:16:16;100722.75;;;16.27;100.00
19676;BME280;39539;52.202;9.876;2023-07-13T04:18:42;100724.41;;;16.45;100.00
19676;BME280;39539;52.202;9.876;2023-07-13T04:21:08;100723.66;;;16.83;100.00
19676;BME280;39539;52.202;9.876;2023-07-13T04:23:35;100731.56;;;17.56;97.10
19676;BME280;39539;52.202;9.876;2023-07-13T04:26:00;100727.28;;;17.82;93.35
19676;BME280;39539;52.202;9.876;2023-07-13T04:28:26;100714.41;;;17.62;94.81
19676;BME280;39539;52.202;9.876;2023-07-13T04:30:52;100716.91;;;17.46;95.84
19676;BME280;39539;52.202;9.876;2023-07-13T04:33:17;100713.88;;;17.38;96.68
19676;BME280;39539;52.202;9.876;2023-07-13T04:35:43;100723.50;;;17.34;98.01
19676;BME280;39539;52.202;9.876;2023-07-13T04:38:12;100712.50;;;17.35;99.15
19676;BME280;39539;52.202;9.876;2023-07-13T04:40:37;100715.31;;;17.45;98.61
19676;BME280;39539;52.202;9.876;2023-07-13T04:43:03;100697.56;;;17.44;99.02
19676;BME280;39539;52.202;9.876;2023-07-13T04:45:28;100712.97;;;17.54;99.09
19676;BME280;39539;52.202;9.876;2023-07-13T04:47:53;100721.41;;;17.63;100.00
19676;BME280;39539;52.202;9.876;2023-07-13T04:50:19;100725.78;;;17.69;99.85
19676;BME280;39539;52.202;9.876;2023-07-13T04:52:49;100726.50;;;17.81;100.00
19676;BME280;39539;52.202;9.876;2023-07-13T04:55:14;100719.41;;;17.75;100.00
19676;BME280;39539;52.202;9.876;2023-07-13T04:57:40;100715.47;;;17.83;100.00
19676;BME280;39539;52.202;9.876;2023-07-13T05:00:06;100715.56;;;17.93;100.00
19676;BME280;39539;52.202;9.876;2023-07-13T05:02:33;100728.97;;;18.15;100.00
19676;BME280;39539;52.202;9.876;2023-07-13T05:04:59;100740.28;;;18.49;99.73
19676;BME280;39539;52.202;9.876;2023-07-13T05:07:25;100736.81;;;18.91;96.24
19676;BME280;39539;52.202;9.876;2023-07-13T05:09:50;100725.91;;;19.18;94.90
19676;BME280;39539;52.202;9.876;2023-07-13T05:12:16;100737.81;;;19.33;94.27
19676;BME280;39539;52.202;9.876;2023-07-13T05:14:41;100734.06;;;19.34;94.11
19676;BME280;39539;52.202;9.876;2023-07-13T05:17:06;100719.19;;;19.26;94.00
19676;BME280;39539;52.202;9.876;2023-07-13T05:19:32;100736.50;;;19.40;93.10
19676;BME280;39539;52.202;9.876;2023-07-13T05:21:59;100736.81;;;19.49;93.03
19676;BME280;39539;52.202;9.876;2023-07-13T05:24:25;100740.63;;;19.63;92.10
19676;BME280;39539;52.202;9.876;2023-07-13T05:26:51;100746.13;;;19.89;92.33
19676;BME280;39539;52.202;9.876;2023-07-13T05:29:16;100740.22;;;20.07;90.16
19676;BME280;39539;52.202;9.876;2023-07-13T05:31:41;100734.81;;;20.02;89.57
19676;BME280;39539;52.202;9.876;2023-07-13T05:34:07;100733.69;;;19.78;89.72
19676;BME280;39539;52.202;9.876;2023-07-13T05:36:33;100749.31;;;19.65;90.26
19676;BME280;39539;52.202;9.876;2023-07-13T05:38:59;100748.13;;;19.46;91.78
19676;BME280;39539;52.202;9.876;2023-07-13T05:41:24;100742.69;;;19.36;92.36
19676;BME280;39539;52.202;9.876;2023-07-13T05:43:50;100740.50;;;19.33;93.63
19676;BME280;39539;52.202;9.876;2023-07-13T05:46:15;100744.47;;;19.67;91.91
19676;BME280;39539;52.202;9.876;2023-07-13T05:48:41;100745.06;;;20.26;85.06
19676;BME280;39539;52.202;9.876;2023-07-13T05:51:07;100743.16;;;20.82;82.46
19676;BME280;39539;52.202;9.876;2023-07-13T05:53:34;100738.81;;;20.97;79.69
19676;BME280;39539;52.202;9.876;2023-07-13T05:56:00;100747.63;;;21.23;80.30
19676;BME280;39539;52.202;9.876;2023-07-13T05:58:25;100754.53;;;21.60;79.75
19676;BME280;39539;52.202;9.876;2023-07-13T06:01:01;100744.09;;;21.92;75.06
19676;BME280;39539;52.202;9.876;2023-07-13T06:03:27;100743.94;;;22.13;79.12
19676;BME280;39539;52.202;9.876;2023-07-13T06:05:54;100747.53;;;22.42;74.31
19676;BME280;39539;52.202;9.876;2023-07-13T06:08:19;100744.19;;;22.80;74.54
19676;BME280;39539;52.202;9.876;2023-07-13T06:10:45;100735.00;;;23.05;72.33
19676;BME280;39539;52.202;9.876;2023-07-13T06:13:10;100737.59;;;23.15;71.53
19676;BME280;39539;52.202;9.876;2023-07-13T06:15:36;100730.88;;;23.31;71.29
19676;BME280;39539;52.202;9.876;2023-07-13T06:18:02;100722.63;;;23.61;69.99
19676;BME280;39539;52.202;9.876;2023-07-13T06:20:28;100726.84;;;23.91;66.62
19676;BME280;39539;52.202;9.876;2023-07-13T06:22:54;100724.91;;;24.90;62.54
19676;BME280;39539;52.202;9.876;2023-07-13T06:25:21;100717.47;;;25.37;60.63
19676;BME280;39539;52.202;9.876;2023-07-13T06:27:46;100699.31;;;25.04;60.32
19676;BME280;39539;52.202;9.876;2023-07-13T06:30:12;100693.06;;;25.31;60.79
19676;BME280;39539;52.202;9.876;2023-07-13T06:32:38;100680.00;;;25.20;57.02
19676;BME280;39539;52.202;9.876;2023-07-13T06:35:04;100682.50;;;24.89;59.13
19676;BME280;39539;52.202;9.876;2023-07-13T06:37:31;100675.97;;;23.96;60.42
19676;BME280;39539;52.202;9.876;2023-07-13T06:39:58;100672.03;;;23.70;62.21
19676;BME280;39539;52.202;9.876;2023-07-13T06:42:23;100658.28;;;23.23;62.29
19676;BME280;39539;52.202;9.876;2023-07-13T06:44:48;100664.69;;;23.51;62.40
19676;BME280;39539;52.202;9.876;2023-07-13T06:47:14;100658.94;;;23.15;64.16
19676;BME280;39539;52.202;9.876;2023-07-13T06:49:39;100660.06;;;23.90;61.52
19676;BME280;39539;52.202;9.876;2023-07-13T06:52:06;100661.59;;;23.96;61.31
19676;BME280;39539;52.202;9.876;2023-07-13T06:54:32;100660.78;;;23.95;62.59
19676;BME280;39539;52.202;9.876;2023-07-13T06:56:57;100665.56;;;24.17;62.67
19676;BME280;39539;52.202;9.876;2023-07-13T06:59:23;100668.28;;;24.17;60.96
19676;BME280;39539;52.202;9.876;2023-07-13T07:01:48;100673.44;;;24.19;60.65
19676;BME280;39539;52.202;9.876;2023-07-13T07:04:14;100648.25;;;24.13;58.64
19676;BME280;39539;52.202;9.876;2023-07-13T07:06:39;100655.66;;;24.27;57.50
19676;BME280;39539;52.202;9.876;2023-07-13T07:09:06;100662.06;;;24.63;57.75
19676;BME280;39539;52.202;9.876;2023-07-13T07:11:31;100656.63;;;24.91;57.68
19676;BME280;39539;52.202;9.876;2023-07-13T07:13:56;100659.41;;;25.14;56.51
19676;BME280;39539;52.202;9.876;2023-07-13T07:16:24;100655.88;;;25.63;56.30
19676;BME280;39539;52.202;9.876;2023-07-13T07:18:50;100663.28;;;26.08;54.47
19676;BME280;39539;52.202;9.876;2023-07-13T07:21:15;100658.06;;;26.20;52.60
19676;BME280;39539;52.202;9.876;2023-07-13T07:23:42;100652.00;;;26.32;52.98
19676;BME280;39539;52.202;9.876;2023-07-13T07:26:08;100645.56;;;26.19;53.12
19676;BME280;39539;52.202;9.876;2023-07-13T07:28:35;100647.28;;;26.15;52.38
19676;BME280;39539;52.202;9.876;2023-07-13T07:31:01;100645.25;;;26.29;52.95
19676;BME280;39539;52.202;9.876;2023-07-13T07:33:27;100638.84;;;26.25;54.51
19676;BME280;39539;52.202;9.876;2023-07-13T07:35:52;100633.63;;;26.46;53.20
19676;BME280;39539;52.202;9.876;2023-07-13T07:38:18;100641.94;;;27.38;51.89
19676;BME280;39539;52.202;9.876;2023-07-13T07:40:43;100637.25;;;27.73;49.18
19676;BME280;39539;52.202;9.876;2023-07-13T07:43:11;100636.31;;;27.52;49.90
19676;BME280;39539;52.202;9.876;2023-07-13T07:45:38;100646.75;;;28.79;50.17
19676;BME280;39539;52.202;9.876;2023-07-13T07:48:04;100646.41;;;30.27;46.09
19676;BME280;39539;52.202;9.876;2023-07-13T07:50:30;100625.75;;;29.96;46.14
19676;BME280;39539;52.202;9.876;2023-07-13T07:52:56;100643.19;;;30.25;44.53
19676;BME280;39539;52.202;9.876;2023-07-13T07:55:22;100647.66;;;30.30;45.37
19676;BME280;39539;52.202;9.876;2023-07-13T07:57:49;100652.13;;;30.59;43.60
19676;BME280;39539;52.202;9.876;2023-07-13T08:00:15;100640.66;;;29.53;45.65
19676;BME280;39539;52.202;9.876;2023-07-13T08:02:42;100629.09;;;29.48;45.38
19676;BME280;39539;52.202;9.876;2023-07-13T08:05:11;100635.16;;;30.20;44.35
19676;BME280;39539;52.202;9.876;2023-07-13T08:07:37;100633.69;;;29.56;46.67
19676;BME280;39539;52.202;9.876;2023-07-13T08:10:03;100621.13;;;29.55;46.22
19676;BME280;39539;52.202;9.876;2023-07-13T08:12:28;100633.47;;;30.28;44.09
19676;BME280;39539;52.202;9.876;2023-07-13T08:14:55;100636.69;;;30.30;45.08
19676;BME280;39539;52.202;9.876;2023-07-13T08:17:24;100631.97;;;30.18;43.70
19676;BME280;39539;52.202;9.876;2023-07-13T08:19:50;100632.03;;;30.79;44.11
19676;BME280;39539;52.202;9.876;2023-07-13T08:22:16;100641.22;;;31.92;41.99
19676;BME280;39539;52.202;9.876;2023-07-13T08:24:41;100621.09;;;31.76;42.41
19676;BME280;39539;52.202;9.876;2023-07-13T08:27:13;100645.56;;;33.82;39.70
19676;BME280;39539;52.202;9.876;2023-07-13T08:29:39;100621.19;;;32.55;40.08
19676;BME280;39539;52.202;9.876;2023-07-13T08:32:06;100648.22;;;32.85;40.89
19676;BME280;39539;52.202;9.876;2023-07-13T08:34:35;100642.41;;;32.71;40.10
19676;BME280;39539;52.202;9.876;2023-07-13T08:37:01;100645.69;;;32.76;39.20
19676;BME280;39539;52.202;9.876;2023-07-13T08:39:28;100635.19;;;32.03;40.18
19676;BME280;39539;52.202;9.876;2023-07-13T08:42:01;100626.16;;;31.74;42.32
19676;BME280;39539;52.202;9.876;2023-07-13T08:47:21;100633.81;;;32.56;41.04
19676;BME280;39539;52.202;9.876;2023-07-13T08:49:49;100645.81;;;33.96;41.22
19676;BME280;39539;52.202;9.876;2023-07-13T08:52:26;100647.63;;;34.54;38.46
19676;BME280;39539;52.202;9.876;2023-07-13T08:54:58;100639.63;;;35.59;37.50
19676;BME280;39539;52.202;9.876;2023-07-13T08:57:32;100649.72;;;36.19;35.84
19676;BME280;39539;52.202;9.876;2023-07-13T08:59:58;100646.63;;;36.79;35.35
19676;BME280;39539;52.202;9.876;2023-07-13T09:05:13;100666.44;;;37.62;34.29
19676;BME280;39539;52.202;9.876;2023-07-13T09:10:27;100662.13;;;36.91;33.99
19676;BME280;39539;52.202;9.876;2023-07-13T09:13:08;100665.81;;;36.06;36.35
19676;BME280;39539;52.202;9.876;2023-07-13T09:15:43;100658.81;;;36.68;34.79
19676;BME280;39539;52.202;9.876;2023-07-13T09:18:34;100658.63;;;33.66;37.74
19676;BME280;39539;52.202;9.876;2023-07-13T09:23:36;100665.09;;;29.59;43.55
19676;BME280;39539;52.202;9.876;2023-07-13T09:26:31;100675.88;;;30.30;44.56
19676;BME280;39539;52.202;9.876;2023-07-13T09:29:01;100666.13;;;28.74;45.63
19676;BME280;39539;52.202;9.876;2023-07-13T09:31:33;100668.56;;;28.67;46.92
19676;BME280;39539;52.202;9.876;2023-07-13T09:34:00;100672.94;;;28.59;49.14
19676;BME280;39539;52.202;9.876;2023-07-13T09:39:05;100697.47;;;32.71;42.08
19676;BME280;39539;52.202;9.876;2023-07-13T09:41:46;100683.47;;;33.11;39.02
19676;BME280;39539;52.202;9.876;2023-07-13T09:44:18;100663.78;;;31.86;41.71
19676;BME280;39539;52.202;9.876;2023-07-13T09:46:54;100671.16;;;30.89;44.11
19676;BME280;39539;52.202;9.876;2023-07-13T09:49:26;100674.72;;;32.74;41.64
19676;BME280;39539;52.202;9.876;2023-07-13T09:52:14;100675.84;;;35.50;38.05
19676;BME280;39539;52.202;9.876;2023-07-13T09:54:44;100662.75;;;37.33;34.88
19676;BME280;39539;52.202;9.876;2023-07-13T09:57:15;100657.06;;;38.34;33.31
19676;BME280;39539;52.202;9.876;2023-07-13T09:59:45;100659.75;;;39.13;33.10
19676;BME280;39539;52.202;9.876;2023-07-13T10:02:30;100651.44;;;39.87;32.85
19676;BME280;39539;52.202;9.876;2023-07-13T10:05:06;100655.25;;;40.56;30.94
19676;BME280;39539;52.202;9.876;2023-07-13T10:07:38;100644.97;;;40.49;30.79
19676;BME280;39539;52.202;9.876;2023-07-13T10:10:14;100650.47;;;40.56;30.60
19676;BME280;39539;52.202;9.876;2023-07-13T10:12:40;100647.50;;;38.64;32.59
19676;BME280;39539;52.202;9.876;2023-07-13T10:15:13;100652.41;;;39.59;31.81
19676;BME280;39539;52.202;9.876;2023-07-13T10:17:39;100647.91;;;38.30;33.86
19676;BME280;39539;52.202;9.876;2023-07-13T10:20:06;100651.72;;;39.33;31.29
19676;BME280;39539;52.202;9.876;2023-07-13T10:25:15;100654.13;;;39.24;32.59
19676;BME280;39539;52.202;9.876;2023-07-13T10:27:41;100641.19;;;39.66;31.14
19676;BME280;39539;52.202;9.876;2023-07-13T10:32:43;100638.00;;;36.40;33.08
19676;BME280;39539;52.202;9.876;2023-07-13T10:35:14;100631.22;;;34.65;35.55
19676;BME280;39539;52.202;9.876;2023-07-13T10:37:55;100655.91;;;35.07;37.04
19676;BME280;39539;52.202;9.876;2023-07-13T10:40:26;100664.47;;;35.25;34.68
19676;BME280;39539;52.202;9.876;2023-07-13T10:42:57;100662.16;;;34.28;38.58
19676;BME280;39539;52.202;9.876;2023-07-13T10:45:24;100658.31;;;32.46;38.53
19676;BME280;39539;52.202;9.876;2023-07-13T10:47:53;100662.94;;;31.29;41.06
19676;BME280;39539;52.202;9.876;2023-07-13T10:50:25;100670.44;;;29.76;41.99
19676;BME280;39539;52.202;9.876;2023-07-13T10:53:00;100673.81;;;28.80;43.79
19676;BME280;39539;52.202;9.876;2023-07-13T10:55:31;100673.53;;;28.17;46.61
19676;BME280;39539;52.202;9.876;2023-07-13T10:58:13;100691.56;;;28.10;46.86
19676;BME280;39539;52.202;9.876;2023-07-13T11:01:11;100692.88;;;27.60;47.07
19676;BME280;39539;52.202;9.876;2023-07-13T11:03:59;100692.59;;;27.04;48.34
19676;BME280;39539;52.202;9.876;2023-07-13T11:06:34;100695.13;;;26.92;49.25
19676;BME280;39539;52.202;9.876;2023-07-13T11:09:39;100713.09;;;27.42;48.68
19676;BME280;39539;52.202;9.876;2023-07-13T11:12:26;100702.38;;;27.80;51.59
19676;BME280;39539;52.202;9.876;2023-07-13T11:20:18;100715.47;;;29.45;48.43
19676;BME280;39539;52.202;9.876;2023-07-13T11:23:07;100714.53;;;29.62;46.14
19676;BME280;39539;52.202;9.876;2023-07-13T11:25:35;100697.09;;;29.25;43.88
19676;BME280;39539;52.202;9.876;2023-07-13T11:36:12;100695.09;;;27.41;47.09
19676;BME280;39539;52.202;9.876;2023-07-13T11:39:24;100696.69;;;27.24;51.34
19676;BME280;39539;52.202;9.876;2023-07-13T11:41:52;100707.78;;;27.63;49.05
19676;BME280;39539;52.202;9.876;2023-07-13T11:44:21;100688.47;;;27.16;48.71
19676;BME280;39539;52.202;9.876;2023-07-13T11:46:59;100721.16;;;27.90;51.85
19676;BME280;39539;52.202;9.876;2023-07-13T11:49:30;100717.31;;;28.00;50.98
19676;BME280;39539;52.202;9.876;2023-07-13T11:51:57;100703.94;;;27.72;48.17
19676;BME280;39539;52.202;9.876;2023-07-13T11:54:55;100705.38;;;27.44;48.70
19676;BME280;39539;52.202;9.876;2023-07-13T11:57:36;100706.47;;;27.25;50.32
19676;BME280;39539;52.202;9.876;2023-07-13T12:00:13;100695.97;;;27.10;50.93
19676;BME280;39539;52.202;9.876;2023-07-13T12:02:51;100712.66;;;27.08;50.62
19676;BME280;39539;52.202;9.876;2023-07-13T12:05:18;100695.31;;;26.96;51.01
19676;BME280;39539;52.202;9.876;2023-07-13T12:07:46;100707.28;;;26.86;52.21
19676;BME280;39539;52.202;9.876;2023-07-13T12:10:21;100702.88;;;26.59;51.60
19676;BME280;39539;52.202;9.876;2023-07-13T12:13:08;100711.97;;;26.54;51.04
19676;BME280;39539;52.202;9.876;2023-07-13T12:15:39;100720.78;;;26.91;49.40
19676;BME280;39539;52.202;9.876;2023-07-13T12:18:14;100713.38;;;27.31;49.54
19676;BME280;39539;52.202;9.876;2023-07-13T12:20:40;100716.63;;;27.68;50.39
19676;BME280;39539;52.202;9.876;2023-07-13T12:23:23;100710.69;;;27.66;49.13
19676;BME280;39539;52.202;9.876;2023-07-13T12:25:51;100697.19;;;27.61;48.11
19676;BME280;39539;52.202;9.876;2023-07-13T12:28:40;100712.31;;;28.02;50.60
19676;BME280;39539;52.202;9.876;2023-07-13T12:31:31;100716.47;;;28.17;50.14
19676;BME280;39539;52.202;9.876;2023-07-13T12:34:06;100724.19;;;28.15;47.54
19676;BME280;39539;52.202;9.876;2023-07-13T12:41:53;100712.31;;;28.02;49.42
19676;BME280;39539;52.202;9.876;2023-07-13T12:44:30;100709.75;;;27.88;47.62
19676;BME280;39539;52.202;9.876;2023-07-13T12:47:09;100706.03;;;27.67;48.49
19676;BME280;39539;52.202;9.876;2023-07-13T12:49:42;100712.16;;;27.72;48.43
19676;BME280;39539;52.202;9.876;2023-07-13T12:52:16;100705.53;;;27.73;50.79
19676;BME280;39539;52.202;9.876;2023-07-13T12:55:02;100710.19;;;27.47;48.14
19676;BME280;39539;52.202;9.876;2023-07-13T12:57:29;100703.16;;;27.54;49.50
19676;BME280;39539;52.202;9.876;2023-07-13T12:59:55;100707.09;;;27.22;48.33
19676;BME280;39539;52.202;9.876;2023-07-13T13:02:32;100704.91;;;26.93;48.85
19676;BME280;39539;52.202;9.876;2023-07-13T13:05:01;100703.59;;;26.82;48.99
19676;BME280;39539;52.202;9.876;2023-07-13T13:07:29;100719.34;;;26.85;49.83
19676;BME280;39539;52.202;9.876;2023-07-13T13:09:56;100717.00;;;27.09;51.97
19676;BME280;39539;52.202;9.876;2023-07-13T13:12:23;100718.19;;;27.26;50.32
19676;BME280;39539;52.202;9.876;2023-07-13T13:14:51;100720.47;;;27.33;48.47
19676;BME280;39539;52.202;9.876;2023-07-13T13:17:21;100714.47;;;26.73;48.63
19676;BME280;39539;52.202;9.876;2023-07-13T13:19:51;100703.03;;;25.86;50.75
19676;BME280;39539;52.202;9.876;2023-07-13T13:22:20;100717.44;;;25.73;50.38
19676;BME280;39539;52.202;9.876;2023-07-13T13:24:45;100724.13;;;25.67;51.46
19676;BME280;39539;52.202;9.876;2023-07-13T13:27:16;100732.88;;;25.77;50.88
19676;BME280;39539;52.202;9.876;2023-07-13T13:29:43;100742.22;;;25.99;51.91
19676;BME280;39539;52.202;9.876;2023-07-13T13:32:14;100756.72;;;26.31;50.43